Skip Navigation LinksHome page > Weather > Current weather Skip Navigation Links

Current Weather

Porter County Muni, Valparaiso, Ind.

For information only: do not use for flight planning or navigation.
Latest weather
Observation time Friday, February 21, 2020 1:56 AM CST
Local time Friday, February 21, 2020 2:36 AM CST
Flight conditions Visual Meteorological Conditions
Winds
Wind direction West-Southwest (240°)
Wind speed 6 mph
Visibility 10 mi.
Sky condition
Ceiling unlimited
Sky clear
Temperature 12°F
Dewpoint 4°F
Altimeter 30.63 in.Hg
Derived measurements
Relative humidity 69%
Wind chill 3°F
Density altitude -3288 ft.
Sea-level pressure 30.67 in.Hg
Remarks
Fully automated report.
Automated weather observing station with precipitation discriminator.
METAR KVPZ 210756Z AUTO 24005KT 10SM CLR M11/M16 A3063 RMK AO2 SLP386 T11111156

Settings

Location code

InnerDrive.Weather 4.0.6770.0 Release CLR 4.0.30319.42000
Copyright ©2018 Inner Drive Technology. All rights reserved. Portions Copyright ©1986-2018 David Braverman.

Find weather

Site navigation


Skip Navigation Links

Place info

Page info

PayPal - The safer, easier way to pay online!

Return home.

Copyright ©2020 Inner Drive Technology. Purveyors of fine, hand-crafted computer software. Page printed 2020-02-21T08:36:59 UTC.